sensor_id;sensor_type;location;lat;lon;timestamp;pressure;altitude;pressure_sealevel;temperature;humidity
61359;BME280;47228;46.762;23.598;2022-09-09T00:02:10;97097.64;;;17.23;76.16
61359;BME280;47228;46.762;23.598;2022-09-09T00:04:52;97098.42;;;17.21;76.36
61359;BME280;47228;46.762;23.598;2022-09-09T00:07:46;97098.28;;;17.18;76.36
61359;BME280;47228;46.762;23.598;2022-09-09T00:10:28;97098.56;;;17.13;76.36
61359;BME280;47228;46.762;23.598;2022-09-09T00:18:47;97094.61;;;17.06;76.62
61359;BME280;47228;46.762;23.598;2022-09-09T00:21:18;97096.59;;;17.03;76.82
61359;BME280;47228;46.762;23.598;2022-09-09T00:23:53;97101.98;;;17.01;76.66
61359;BME280;47228;46.762;23.598;2022-09-09T00:31:41;97106.40;;;16.92;76.44
61359;BME280;47228;46.762;23.598;2022-09-09T00:34:13;97103.71;;;16.86;76.81
61359;BME280;47228;46.762;23.598;2022-09-09T00:36:42;97104.81;;;16.80;76.57
61359;BME280;47228;46.762;23.598;2022-09-09T00:39:31;97105.50;;;16.75;76.71
61359;BME280;47228;46.762;23.598;2022-09-09T00:42:25;97102.96;;;16.73;77.32
61359;BME280;47228;46.762;23.598;2022-09-09T00:47:46;97100.15;;;16.75;77.90
61359;BME280;47228;46.762;23.598;2022-09-09T00:50:48;97097.40;;;16.78;77.71
61359;BME280;47228;46.762;23.598;2022-09-09T00:53:39;97092.77;;;16.78;77.52
61359;BME280;47228;46.762;23.598;2022-09-09T00:56:16;97095.09;;;16.77;77.48
61359;BME280;47228;46.762;23.598;2022-09-09T00:59:03;97085.54;;;16.77;77.47
61359;BME280;47228;46.762;23.598;2022-09-09T01:01:36;97079.15;;;16.78;77.81
61359;BME280;47228;46.762;23.598;2022-09-09T01:04:16;97079.75;;;16.79;77.80
61359;BME280;47228;46.762;23.598;2022-09-09T01:06:49;97079.11;;;16.80;77.79
61359;BME280;47228;46.762;23.598;2022-09-09T01:12:25;97089.04;;;16.75;77.37
61359;BME280;47228;46.762;23.598;2022-09-09T01:15:03;97088.42;;;16.72;77.70
61359;BME280;47228;46.762;23.598;2022-09-09T01:17:53;97092.31;;;16.71;77.75
61359;BME280;47228;46.762;23.598;2022-09-09T01:20:31;97082.77;;;16.69;77.98
61359;BME280;47228;46.762;23.598;2022-09-09T01:28:29;97074.16;;;16.73;78.33
61359;BME280;47228;46.762;23.598;2022-09-09T01:31:04;97072.85;;;16.75;78.36
61359;BME280;47228;46.762;23.598;2022-09-09T01:33:40;97069.70;;;16.77;78.12
61359;BME280;47228;46.762;23.598;2022-09-09T01:36:12;97060.88;;;16.78;78.04
61359;BME280;47228;46.762;23.598;2022-09-09T01:38:49;97052.25;;;16.80;78.00
61359;BME280;47228;46.762;23.598;2022-09-09T01:41:18;97052.85;;;16.81;78.04
61359;BME280;47228;46.762;23.598;2022-09-09T01:43:53;97049.40;;;16.80;77.86
61359;BME280;47228;46.762;23.598;2022-09-09T01:46:23;97054.13;;;16.75;77.83
61359;BME280;47228;46.762;23.598;2022-09-09T01:48:53;97059.84;;;16.73;77.80
61359;BME280;47228;46.762;23.598;2022-09-09T01:51:22;97058.27;;;16.72;77.93
61359;BME280;47228;46.762;23.598;2022-09-09T01:53:51;97060.02;;;16.71;77.91
61359;BME280;47228;46.762;23.598;2022-09-09T01:56:29;97054.34;;;16.70;78.03
61359;BME280;47228;46.762;23.598;2022-09-09T02:05:02;97061.55;;;16.77;78.44
61359;BME280;47228;46.762;23.598;2022-09-09T02:07:49;97059.03;;;16.77;78.49
61359;BME280;47228;46.762;23.598;2022-09-09T02:10:54;97065.98;;;16.76;78.52
61359;BME280;47228;46.762;23.598;2022-09-09T02:13:37;97071.80;;;16.72;78.29
61359;BME280;47228;46.762;23.598;2022-09-09T02:16:21;97078.10;;;16.71;78.47
61359;BME280;47228;46.762;23.598;2022-09-09T02:19:14;97081.88;;;16.68;78.43
61359;BME280;47228;46.762;23.598;2022-09-09T02:22:01;97088.71;;;16.65;78.35
61359;BME280;47228;46.762;23.598;2022-09-09T02:24:33;97114.98;;;16.61;78.25
61359;BME280;47228;46.762;23.598;2022-09-09T02:27:11;97206.27;;;16.48;79.12
61359;BME280;47228;46.762;23.598;2022-09-09T02:29:43;97191.17;;;16.31;79.15
61359;BME280;47228;46.762;23.598;2022-09-09T02:32:21;97207.73;;;16.25;79.58
61359;BME280;47228;46.762;23.598;2022-09-09T02:34:55;97209.55;;;16.20;79.82
61359;BME280;47228;46.762;23.598;2022-09-09T02:37:28;97206.71;;;16.20;79.94
61359;BME280;47228;46.762;23.598;2022-09-09T02:39:59;97201.28;;;16.23;79.84
61359;BME280;47228;46.762;23.598;2022-09-09T02:42:29;97200.02;;;16.27;79.70
61359;BME280;47228;46.762;23.598;2022-09-09T02:44:58;97204.53;;;16.32;79.82
61359;BME280;47228;46.762;23.598;2022-09-09T02:47:42;97218.17;;;16.37;79.78
61359;BME280;47228;46.762;23.598;2022-09-09T02:50:28;97214.02;;;16.42;79.60
61359;BME280;47228;46.762;23.598;2022-09-09T02:53:01;97213.60;;;16.47;79.69
61359;BME280;47228;46.762;23.598;2022-09-09T02:58:11;97226.66;;;16.56;79.76
61359;BME280;47228;46.762;23.598;2022-09-09T03:00:53;97234.73;;;16.58;80.04
61359;BME280;47228;46.762;23.598;2022-09-09T03:03:23;97244.41;;;16.60;80.23
61359;BME280;47228;46.762;23.598;2022-09-09T03:05:52;97251.70;;;16.60;80.36
61359;BME280;47228;46.762;23.598;2022-09-09T03:08:20;97250.88;;;16.59;80.88
61359;BME280;47228;46.762;23.598;2022-09-09T03:10:48;97258.17;;;16.59;81.30
61359;BME280;47228;46.762;23.598;2022-09-09T03:13:16;97254.64;;;16.60;81.68
61359;BME280;47228;46.762;23.598;2022-09-09T03:15:48;97249.18;;;16.60;81.86
61359;BME280;47228;46.762;23.598;2022-09-09T03:18:17;97241.45;;;16.59;82.17
61359;BME280;47228;46.762;23.598;2022-09-09T03:20:48;97218.13;;;16.59;82.58
61359;BME280;47228;46.762;23.598;2022-09-09T03:23:19;97214.11;;;16.59;82.74
61359;BME280;47228;46.762;23.598;2022-09-09T03:25:51;97230.62;;;16.59;83.26
61359;BME280;47228;46.762;23.598;2022-09-09T03:28:25;97213.52;;;16.60;83.50
61359;BME280;47228;46.762;23.598;2022-09-09T03:31:00;97212.58;;;16.61;83.54
61359;BME280;47228;46.762;23.598;2022-09-09T03:33:31;97210.55;;;16.62;84.07
61359;BME280;47228;46.762;23.598;2022-09-09T03:35:59;97200.35;;;16.65;84.43
61359;BME280;47228;46.762;23.598;2022-09-09T03:38:27;97196.85;;;16.67;84.50
61359;BME280;47228;46.762;23.598;2022-09-09T03:40:56;97212.00;;;16.71;84.54
61359;BME280;47228;46.762;23.598;2022-09-09T03:43:28;97217.36;;;16.73;84.49
61359;BME280;47228;46.762;23.598;2022-09-09T03:45:57;97217.91;;;16.75;84.54
61359;BME280;47228;46.762;23.598;2022-09-09T03:48:27;97210.33;;;16.76;84.55
61359;BME280;47228;46.762;23.598;2022-09-09T03:50:56;97211.86;;;16.79;84.76
61359;BME280;47228;46.762;23.598;2022-09-09T03:53:27;97213.80;;;16.80;84.77
61359;BME280;47228;46.762;23.598;2022-09-09T03:55:57;97213.37;;;16.80;84.44
61359;BME280;47228;46.762;23.598;2022-09-09T03:58:29;97211.65;;;16.79;84.84
61359;BME280;47228;46.762;23.598;2022-09-09T04:01:07;97209.50;;;16.79;85.01
61359;BME280;47228;46.762;23.598;2022-09-09T04:03:39;97206.91;;;16.81;85.03
61359;BME280;47228;46.762;23.598;2022-09-09T04:06:09;97214.70;;;16.83;85.01
61359;BME280;47228;46.762;23.598;2022-09-09T04:08:40;97219.41;;;16.82;84.70
61359;BME280;47228;46.762;23.598;2022-09-09T04:11:09;97228.17;;;16.80;84.70
61359;BME280;47228;46.762;23.598;2022-09-09T04:13:38;97226.11;;;16.78;85.02
61359;BME280;47228;46.762;23.598;2022-09-09T04:16:10;97222.48;;;16.79;85.34
61359;BME280;47228;46.762;23.598;2022-09-09T04:18:40;97218.69;;;16.80;85.26
61359;BME280;47228;46.762;23.598;2022-09-09T04:21:09;97224.14;;;16.79;85.31
61359;BME280;47228;46.762;23.598;2022-09-09T04:23:40;97215.34;;;16.79;85.22
61359;BME280;47228;46.762;23.598;2022-09-09T04:26:09;97205.89;;;16.78;85.47
61359;BME280;47228;46.762;23.598;2022-09-09T04:28:37;97201.59;;;16.81;85.82
61359;BME280;47228;46.762;23.598;2022-09-09T04:31:21;97189.14;;;16.85;85.68
61359;BME280;47228;46.762;23.598;2022-09-09T04:33:53;97181.46;;;16.88;85.66
61359;BME280;47228;46.762;23.598;2022-09-09T04:36:22;97167.21;;;16.90;85.94
61359;BME280;47228;46.762;23.598;2022-09-09T04:38:52;97167.25;;;16.93;85.88
61359;BME280;47228;46.762;23.598;2022-09-09T04:41:20;97171.95;;;16.95;85.80
61359;BME280;47228;46.762;23.598;2022-09-09T04:43:50;97175.92;;;16.96;85.74
61359;BME280;47228;46.762;23.598;2022-09-09T04:46:21;97169.34;;;16.98;85.81
61359;BME280;47228;46.762;23.598;2022-09-09T04:48:51;97164.79;;;16.99;85.80
61359;BME280;47228;46.762;23.598;2022-09-09T04:51:21;97167.99;;;16.97;85.85
61359;BME280;47228;46.762;23.598;2022-09-09T04:53:49;97171.27;;;16.96;85.84
61359;BME280;47228;46.762;23.598;2022-09-09T04:56:19;97166.70;;;16.98;86.08
61359;BME280;47228;46.762;23.598;2022-09-09T04:58:51;97168.70;;;17.02;86.30
61359;BME280;47228;46.762;23.598;2022-09-09T05:01:22;97162.54;;;17.06;86.26
61359;BME280;47228;46.762;23.598;2022-09-09T05:03:53;97152.66;;;17.10;86.35
61359;BME280;47228;46.762;23.598;2022-09-09T05:06:23;97156.58;;;17.13;86.36
61359;BME280;47228;46.762;23.598;2022-09-09T05:08:57;97170.61;;;17.16;86.12
61359;BME280;47228;46.762;23.598;2022-09-09T05:11:30;97177.63;;;17.16;85.73
61359;BME280;47228;46.762;23.598;2022-09-09T05:14:04;97189.48;;;17.14;86.32
61359;BME280;47228;46.762;23.598;2022-09-09T05:16:32;97193.06;;;17.13;86.25
61359;BME280;47228;46.762;23.598;2022-09-09T05:19:00;97201.30;;;17.11;86.32
61359;BME280;47228;46.762;23.598;2022-09-09T05:21:44;97208.02;;;17.07;86.44
61359;BME280;47228;46.762;23.598;2022-09-09T05:24:12;97211.77;;;17.04;86.92
61359;BME280;47228;46.762;23.598;2022-09-09T05:26:41;97215.66;;;17.03;86.69
61359;BME280;47228;46.762;23.598;2022-09-09T05:29:09;97206.92;;;16.99;86.65
61359;BME280;47228;46.762;23.598;2022-09-09T05:31:38;97193.64;;;16.98;86.77
61359;BME280;47228;46.762;23.598;2022-09-09T05:34:10;97179.30;;;17.00;87.13
61359;BME280;47228;46.762;23.598;2022-09-09T05:36:39;97174.38;;;17.05;87.43
61359;BME280;47228;46.762;23.598;2022-09-09T05:39:07;97177.73;;;17.10;87.48
61359;BME280;47228;46.762;23.598;2022-09-09T05:41:36;97174.92;;;17.13;87.33
61359;BME280;47228;46.762;23.598;2022-09-09T05:44:04;97173.14;;;17.17;87.42
61359;BME280;47228;46.762;23.598;2022-09-09T05:46:36;97167.56;;;17.22;87.65
61359;BME280;47228;46.762;23.598;2022-09-09T05:49:05;97162.19;;;17.26;87.72
61359;BME280;47228;46.762;23.598;2022-09-09T05:51:34;97151.65;;;17.30;87.60
61359;BME280;47228;46.762;23.598;2022-09-09T05:54:06;97145.55;;;17.35;87.45
61359;BME280;47228;46.762;23.598;2022-09-09T05:56:37;97135.96;;;17.39;87.48
61359;BME280;47228;46.762;23.598;2022-09-09T05:59:06;97123.55;;;17.42;87.45
61359;BME280;47228;46.762;23.598;2022-09-09T06:01:36;97112.73;;;17.45;87.32
61359;BME280;47228;46.762;23.598;2022-09-09T06:04:11;97101.91;;;17.48;87.28
61359;BME280;47228;46.762;23.598;2022-09-09T06:06:40;97104.18;;;17.51;87.09
61359;BME280;47228;46.762;23.598;2022-09-09T06:09:15;97110.52;;;17.51;86.90
61359;BME280;47228;46.762;23.598;2022-09-09T06:11:44;97110.32;;;17.51;86.81
61359;BME280;47228;46.762;23.598;2022-09-09T06:14:14;97125.66;;;17.51;86.67
61359;BME280;47228;46.762;23.598;2022-09-09T06:16:45;97137.85;;;17.52;86.62
61359;BME280;47228;46.762;23.598;2022-09-09T06:19:17;97135.23;;;17.53;86.51
61359;BME280;47228;46.762;23.598;2022-09-09T06:21:45;97152.46;;;17.52;86.14
61359;BME280;47228;46.762;23.598;2022-09-09T06:24:16;97154.48;;;17.49;86.41
61359;BME280;47228;46.762;23.598;2022-09-09T06:26:47;97154.65;;;17.50;86.56
61359;BME280;47228;46.762;23.598;2022-09-09T06:29:24;97139.73;;;17.49;86.62
61359;BME280;47228;46.762;23.598;2022-09-09T06:31:52;97136.55;;;17.50;86.56
61359;BME280;47228;46.762;23.598;2022-09-09T06:34:22;97147.88;;;17.50;86.63
61359;BME280;47228;46.762;23.598;2022-09-09T06:36:54;97146.39;;;17.50;86.42
61359;BME280;47228;46.762;23.598;2022-09-09T06:39:23;97145.09;;;17.51;86.82
61359;BME280;47228;46.762;23.598;2022-09-09T06:41:51;97134.38;;;17.52;86.70
61359;BME280;47228;46.762;23.598;2022-09-09T06:44:40;97126.06;;;17.53;86.71
61359;BME280;47228;46.762;23.598;2022-09-09T06:47:10;97125.44;;;17.54;86.67
61359;BME280;47228;46.762;23.598;2022-09-09T06:49:39;97124.01;;;17.57;86.91
61359;BME280;47228;46.762;23.598;2022-09-09T06:52:09;97122.20;;;17.60;86.50
61359;BME280;47228;46.762;23.598;2022-09-09T06:54:37;97124.96;;;17.61;86.72
61359;BME280;47228;46.762;23.598;2022-09-09T06:57:05;97124.02;;;17.64;86.74
61359;BME280;47228;46.762;23.598;2022-09-09T06:59:55;97133.34;;;17.68;86.79
61359;BME280;47228;46.762;23.598;2022-09-09T07:02:23;97128.61;;;17.74;86.74
61359;BME280;47228;46.762;23.598;2022-09-09T07:04:52;97127.27;;;17.79;86.75
61359;BME280;47228;46.762;23.598;2022-09-09T07:07:19;97131.06;;;17.85;86.92
61359;BME280;47228;46.762;23.598;2022-09-09T07:09:48;97137.01;;;17.89;86.69
61359;BME280;47228;46.762;23.598;2022-09-09T07:12:17;97129.20;;;17.93;86.78
61359;BME280;47228;46.762;23.598;2022-09-09T07:14:52;97125.80;;;17.98;86.63
61359;BME280;47228;46.762;23.598;2022-09-09T07:17:20;97129.64;;;18.02;86.77
61359;BME280;47228;46.762;23.598;2022-09-09T07:19:48;97136.45;;;18.06;86.37
61359;BME280;47228;46.762;23.598;2022-09-09T07:22:17;97139.18;;;18.07;85.97
61359;BME280;47228;46.762;23.598;2022-09-09T07:24:45;97146.11;;;18.06;85.94
61359;BME280;47228;46.762;23.598;2022-09-09T07:27:13;97145.64;;;18.07;86.02
61359;BME280;47228;46.762;23.598;2022-09-09T07:29:41;97144.34;;;18.10;86.36
61359;BME280;47228;46.762;23.598;2022-09-09T07:32:10;97145.61;;;18.14;86.27
61359;BME280;47228;46.762;23.598;2022-09-09T07:34:38;97150.48;;;18.18;86.54
61359;BME280;47228;46.762;23.598;2022-09-09T07:37:06;97158.45;;;18.19;86.08
61359;BME280;47228;46.762;23.598;2022-09-09T07:39:34;97156.06;;;18.19;85.59
61359;BME280;47228;46.762;23.598;2022-09-09T07:42:03;97156.54;;;18.17;85.45
61359;BME280;47228;46.762;23.598;2022-09-09T07:44:32;97162.66;;;18.15;85.94
61359;BME280;47228;46.762;23.598;2022-09-09T07:47:09;97160.09;;;18.17;86.24
61359;BME280;47228;46.762;23.598;2022-09-09T07:49:41;97160.56;;;18.21;86.54
61359;BME280;47228;46.762;23.598;2022-09-09T07:52:09;97159.94;;;18.26;86.56
61359;BME280;47228;46.762;23.598;2022-09-09T07:54:43;97162.72;;;18.32;86.64
61359;BME280;47228;46.762;23.598;2022-09-09T07:57:13;97162.43;;;18.39;86.89
61359;BME280;47228;46.762;23.598;2022-09-09T07:59:43;97158.02;;;18.45;86.78
61359;BME280;47228;46.762;23.598;2022-09-09T08:02:11;97157.95;;;18.51;86.58
61359;BME280;47228;46.762;23.598;2022-09-09T08:04:39;97158.02;;;18.57;86.67
61359;BME280;47228;46.762;23.598;2022-09-09T08:07:08;97156.63;;;18.65;86.84
61359;BME280;47228;46.762;23.598;2022-09-09T08:09:42;97153.02;;;18.74;86.87
61359;BME280;47228;46.762;23.598;2022-09-09T08:12:23;97155.09;;;18.82;86.59
61359;BME280;47228;46.762;23.598;2022-09-09T08:14:52;97156.41;;;18.87;85.90
61359;BME280;47228;46.762;23.598;2022-09-09T08:17:24;97159.27;;;18.90;85.39
61359;BME280;47228;46.762;23.598;2022-09-09T08:19:53;97157.56;;;18.92;85.15
61359;BME280;47228;46.762;23.598;2022-09-09T08:22:24;97159.10;;;18.99;85.63
61359;BME280;47228;46.762;23.598;2022-09-09T08:24:54;97157.34;;;19.10;85.72
61359;BME280;47228;46.762;23.598;2022-09-09T08:27:22;97156.67;;;19.21;85.55
61359;BME280;47228;46.762;23.598;2022-09-09T08:29:51;97151.65;;;19.33;84.96
61359;BME280;47228;46.762;23.598;2022-09-09T08:32:19;97146.66;;;19.45;84.85
61359;BME280;47228;46.762;23.598;2022-09-09T08:34:47;97136.88;;;19.54;84.44
61359;BME280;47228;46.762;23.598;2022-09-09T08:37:22;97140.18;;;19.58;83.81
61359;BME280;47228;46.762;23.598;2022-09-09T08:39:51;97140.77;;;19.65;84.23
61359;BME280;47228;46.762;23.598;2022-09-09T08:45:19;97148.39;;;19.80;83.89
61359;BME280;47228;46.762;23.598;2022-09-09T08:48:13;97149.41;;;19.88;83.51
61359;BME280;47228;46.762;23.598;2022-09-09T08:50:45;97153.29;;;19.96;83.45
61359;BME280;47228;46.762;23.598;2022-09-09T08:53:36;97156.40;;;20.02;82.72
61359;BME280;47228;46.762;23.598;2022-09-09T08:56:13;97156.66;;;20.00;81.72
61359;BME280;47228;46.762;23.598;2022-09-09T08:58:49;97158.05;;;19.98;81.59
61359;BME280;47228;46.762;23.598;2022-09-09T09:01:50;97156.75;;;19.98;81.83
61359;BME280;47228;46.762;23.598;2022-09-09T09:12:56;97181.15;;;19.95;81.01
61359;BME280;47228;46.762;23.598;2022-09-09T09:15:31;97184.49;;;19.89;80.99
61359;BME280;47228;46.762;23.598;2022-09-09T09:18:05;97172.91;;;19.88;81.28
61359;BME280;47228;46.762;23.598;2022-09-09T09:20:46;97171.83;;;19.89;81.30
61359;BME280;47228;46.762;23.598;2022-09-09T09:23:22;97176.67;;;19.89;81.07
61359;BME280;47228;46.762;23.598;2022-09-09T09:25:58;97173.66;;;19.87;80.91
61359;BME280;47228;46.762;23.598;2022-09-09T09:28:32;97169.46;;;19.82;80.78
61359;BME280;47228;46.762;23.598;2022-09-09T09:31:11;97166.38;;;19.78;80.89
61359;BME280;47228;46.762;23.598;2022-09-09T09:36:14;97164.38;;;19.75;81.11
61359;BME280;47228;46.762;23.598;2022-09-09T09:38:59;97160.23;;;19.75;81.16
61359;BME280;47228;46.762;23.598;2022-09-09T09:41:48;97164.98;;;19.76;80.89
61359;BME280;47228;46.762;23.598;2022-09-09T09:49:34;97160.63;;;19.82;80.82
61359;BME280;47228;46.762;23.598;2022-09-09T09:52:04;97158.84;;;19.87;81.16
61359;BME280;47228;46.762;23.598;2022-09-09T09:54:37;97156.96;;;19.94;81.46
61359;BME280;47228;46.762;23.598;2022-09-09T09:57:11;97156.66;;;20.02;81.16
61359;BME280;47228;46.762;23.598;2022-09-09T09:59:41;97155.92;;;20.07;81.10
61359;BME280;47228;46.762;23.598;2022-09-09T10:02:23;97152.78;;;20.11;80.74
61359;BME280;47228;46.762;23.598;2022-09-09T10:05:08;97156.60;;;20.14;80.69
61359;BME280;47228;46.762;23.598;2022-09-09T10:07:41;97160.06;;;20.14;79.73
61359;BME280;47228;46.762;23.598;2022-09-09T10:10:20;97155.04;;;20.11;79.43
61359;BME280;47228;46.762;23.598;2022-09-09T10:24:18;97151.32;;;20.09;79.88
61359;BME280;47228;46.762;23.598;2022-09-09T10:27:20;97153.15;;;20.11;80.09
61359;BME280;47228;46.762;23.598;2022-09-09T10:29:59;97155.10;;;20.11;79.96
61359;BME280;47228;46.762;23.598;2022-09-09T10:32:40;97154.50;;;20.10;79.68
61359;BME280;47228;46.762;23.598;2022-09-09T10:35:20;97158.11;;;20.08;79.72
61359;BME280;47228;46.762;23.598;2022-09-09T10:54:43;97178.66;;;20.10;79.04
61359;BME280;47228;46.762;23.598;2022-09-09T10:57:27;97178.06;;;20.10;79.16
61359;BME280;47228;46.762;23.598;2022-09-09T11:00:03;97183.50;;;20.10;79.04
61359;BME280;47228;46.762;23.598;2022-09-09T11:02:35;97179.73;;;20.11;78.98
61359;BME280;47228;46.762;23.598;2022-09-09T11:05:18;97180.12;;;20.14;78.89
61359;BME280;47228;46.762;23.598;2022-09-09T11:08:01;97180.27;;;20.21;79.06
61359;BME280;47228;46.762;23.598;2022-09-09T11:13:23;97174.61;;;20.26;79.18
61359;BME280;47228;46.762;23.598;2022-09-09T11:18:48;97177.40;;;20.40;79.19
61359;BME280;47228;46.762;23.598;2022-09-09T11:21:31;97178.41;;;20.46;79.18
61359;BME280;47228;46.762;23.598;2022-09-09T11:24:10;97181.15;;;20.52;78.87
61359;BME280;47228;46.762;23.598;2022-09-09T11:26:46;97176.18;;;20.57;78.95
61359;BME280;47228;46.762;23.598;2022-09-09T11:29:43;97172.23;;;20.62;78.55
61359;BME280;47228;46.762;23.598;2022-09-09T11:40:39;97173.94;;;20.68;77.67
61359;BME280;47228;46.762;23.598;2022-09-09T11:43:18;97171.45;;;20.70;77.64
61359;BME280;47228;46.762;23.598;2022-09-09T11:45:52;97170.52;;;20.75;77.69
61359;BME280;47228;46.762;23.598;2022-09-09T11:48:32;97169.27;;;20.77;77.74
61359;BME280;47228;46.762;23.598;2022-09-09T11:51:04;97167.87;;;20.79;78.03
61359;BME280;47228;46.762;23.598;2022-09-09T11:53:56;97169.91;;;20.82;77.78
61359;BME280;47228;46.762;23.598;2022-09-09T11:56:43;97164.45;;;20.84;77.59
61359;BME280;47228;46.762;23.598;2022-09-09T11:59:25;97163.80;;;20.85;77.47
61359;BME280;47228;46.762;23.598;2022-09-09T12:04:47;97162.73;;;20.88;77.22
61359;BME280;47228;46.762;23.598;2022-09-09T12:07:25;97165.08;;;20.89;77.51
61359;BME280;47228;46.762;23.598;2022-09-09T12:10:05;97160.63;;;20.91;77.73
61359;BME280;47228;46.762;23.598;2022-09-09T12:12:47;97159.05;;;20.94;77.86
61359;BME280;47228;46.762;23.598;2022-09-09T12:17:44;97157.73;;;21.00;77.51
61359;BME280;47228;46.762;23.598;2022-09-09T12:25:30;97146.86;;;21.14;76.97
61359;BME280;47228;46.762;23.598;2022-09-09T12:28:09;97139.39;;;21.18;76.55
61359;BME280;47228;46.762;23.598;2022-09-09T12:33:46;97139.09;;;21.26;76.79
61359;BME280;47228;46.762;23.598;2022-09-09T12:36:29;97138.91;;;21.29;76.66
61359;BME280;47228;46.762;23.598;2022-09-09T12:39:19;97132.84;;;21.32;76.55
61359;BME280;47228;46.762;23.598;2022-09-09T12:41:52;97130.23;;;21.37;76.86
61359;BME280;47228;46.762;23.598;2022-09-09T12:44:25;97130.30;;;21.42;76.82
61359;BME280;47228;46.762;23.598;2022-09-09T12:46:59;97127.78;;;21.47;76.69
61359;BME280;47228;46.762;23.598;2022-09-09T12:49:37;97125.09;;;21.53;76.44
61359;BME280;47228;46.762;23.598;2022-09-09T12:52:24;97123.02;;;21.59;76.45
61359;BME280;47228;46.762;23.598;2022-09-09T12:54:55;97117.94;;;21.64;76.12
61359;BME280;47228;46.762;23.598;2022-09-09T12:57:25;97110.98;;;21.71;76.07
61359;BME280;47228;46.762;23.598;2022-09-09T13:00:10;97107.73;;;21.80;76.30
61359;BME280;47228;46.762;23.598;2022-09-09T13:02:57;97100.13;;;21.91;75.81
61359;BME280;47228;46.762;23.598;2022-09-09T13:05:28;97098.94;;;22.03;75.07
61359;BME280;47228;46.762;23.598;2022-09-09T13:08:06;97094.90;;;22.08;74.18
61359;BME280;47228;46.762;23.598;2022-09-09T13:10:40;97092.67;;;22.14;73.90
61359;BME280;47228;46.762;23.598;2022-09-09T13:13:28;97094.19;;;22.20;73.23
61359;BME280;47228;46.762;23.598;2022-09-09T13:15:59;97094.98;;;22.22;72.06
61359;BME280;47228;46.762;23.598;2022-09-09T13:18:36;97089.98;;;22.25;72.09
61359;BME280;47228;46.762;23.598;2022-09-09T13:21:06;97087.13;;;22.28;71.71
61359;BME280;47228;46.762;23.598;2022-09-09T13:23:36;97086.70;;;22.32;71.14
61359;BME280;47228;46.762;23.598;2022-09-09T13:26:20;97085.80;;;22.37;70.86
61359;BME280;47228;46.762;23.598;2022-09-09T13:28:52;97102.27;;;22.40;71.02
61359;BME280;47228;46.762;23.598;2022-09-09T13:31:24;97111.55;;;22.43;70.59
61359;BME280;47228;46.762;23.598;2022-09-09T13:33:55;97107.05;;;22.42;70.01
61359;BME280;47228;46.762;23.598;2022-09-09T13:36:29;97109.09;;;22.33;70.14
61359;BME280;47228;46.762;23.598;2022-09-09T13:39:00;97106.45;;;22.27;70.16
61359;BME280;47228;46.762;23.598;2022-09-09T13:41:35;97106.66;;;22.23;70.41
61359;BME280;47228;46.762;23.598;2022-09-09T13:44:04;97108.31;;;22.20;70.49
61359;BME280;47228;46.762;23.598;2022-09-09T13:46:39;97107.95;;;22.17;70.61
61359;BME280;47228;46.762;23.598;2022-09-09T13:51:48;97106.38;;;22.12;71.04
61359;BME280;47228;46.762;23.598;2022-09-09T13:54:18;97105.55;;;22.09;70.92
61359;BME280;47228;46.762;23.598;2022-09-09T13:56:49;97102.23;;;22.09;71.24
61359;BME280;47228;46.762;23.598;2022-09-09T13:59:19;97101.93;;;22.07;71.13
61359;BME280;47228;46.762;23.598;2022-09-09T14:01:48;97102.45;;;22.06;71.12
61359;BME280;47228;46.762;23.598;2022-09-09T14:04:20;97099.64;;;22.04;71.41
61359;BME280;47228;46.762;23.598;2022-09-09T14:06:49;97101.30;;;22.00;71.29
61359;BME280;47228;46.762;23.598;2022-09-09T14:09:18;97106.70;;;21.94;71.04
61359;BME280;47228;46.762;23.598;2022-09-09T14:11:47;97106.96;;;21.90;71.23
61359;BME280;47228;46.762;23.598;2022-09-09T14:14:15;97109.86;;;21.87;71.66
61359;BME280;47228;46.762;23.598;2022-09-09T14:16:43;97113.42;;;21.85;71.48
61359;BME280;47228;46.762;23.598;2022-09-09T14:19:12;97109.36;;;21.80;71.48
61359;BME280;47228;46.762;23.598;2022-09-09T14:21:40;97107.77;;;21.77;71.80
61359;BME280;47228;46.762;23.598;2022-09-09T14:24:08;97108.22;;;21.73;71.91
61359;BME280;47228;46.762;23.598;2022-09-09T14:26:36;97109.54;;;21.68;72.19
61359;BME280;47228;46.762;23.598;2022-09-09T14:29:05;97106.86;;;21.64;72.19
61359;BME280;47228;46.762;23.598;2022-09-09T14:31:33;97110.86;;;21.62;72.56
61359;BME280;47228;46.762;23.598;2022-09-09T14:34:01;97113.92;;;21.59;72.99
61359;BME280;47228;46.762;23.598;2022-09-09T14:36:29;97112.77;;;21.55;73.00
61359;BME280;47228;46.762;23.598;2022-09-09T14:38:57;97118.77;;;21.52;72.75
61359;BME280;47228;46.762;23.598;2022-09-09T14:41:26;97123.86;;;21.50;72.92
61359;BME280;47228;46.762;23.598;2022-09-09T14:43:54;97124.12;;;21.47;73.38
61359;BME280;47228;46.762;23.598;2022-09-09T14:46:22;97120.63;;;21.43;73.47
61359;BME280;47228;46.762;23.598;2022-09-09T14:48:51;97122.92;;;21.38;73.75
61359;BME280;47228;46.762;23.598;2022-09-09T14:51:25;97124.85;;;21.34;74.27
61359;BME280;47228;46.762;23.598;2022-09-09T14:53:58;97127.35;;;21.29;74.71
61359;BME280;47228;46.762;23.598;2022-09-09T14:56:29;97129.79;;;21.26;75.23
61359;BME280;47228;46.762;23.598;2022-09-09T14:58:58;97129.92;;;21.22;76.05
61359;BME280;47228;46.762;23.598;2022-09-09T15:01:30;97130.66;;;21.16;76.80
61359;BME280;47228;46.762;23.598;2022-09-09T15:04:03;97134.48;;;21.10;77.35
61359;BME280;47228;46.762;23.598;2022-09-09T15:06:34;97131.42;;;21.03;78.00
61359;BME280;47228;46.762;23.598;2022-09-09T15:09:05;97125.28;;;20.99;78.07
61359;BME280;47228;46.762;23.598;2022-09-09T15:11:35;97121.74;;;20.97;78.44
61359;BME280;47228;46.762;23.598;2022-09-09T15:14:07;97116.23;;;20.96;78.71